• Join FlightAware (Why Join?)
  • Login
  • US Flag 
01:09PM EDT


 

Airport Tracker/Info


-or-


 

Live Flight TrackerFlight Track Log ✈ AWE1571 ✈ 08-May-2013 ✈ KCLT - KMSY

Flight Track Log - Related Links

Times and Time Zones

All times are in EDT time to prevent confusion due to time zone crossing. See the AWE1571 flight status page for this flight to view local times or setup timezone preferences in your user account.

Time Position Orientation Groundspeed Altitude Reporting Facility
EDT Latitude Longitude Course Direction KTS MPH feet Rate Location/Type
11:31AM 35.1869 -80.9511 246° West 163 188 1,800  Level Atlanta Center
11:32AM 35.1369 -80.9556 184° South 203 234 3,200 2,040 Climbing Atlanta Center
11:33AM 35.1114 -81.0097 240° Southwest 206 237 5,600 2,400 Climbing Atlanta Center
11:34AM 35.0850 -81.2829 192° South  Level FlightAware Approximate
11:34AM 35.1028 -81.0889 262° West 278 320 7,600  Level Atlanta Center
11:35AM 35.0484 -81.4045 246° West  Level FlightAware Approximate
11:35AM 35.0967 -81.1778 265° West 271 312 8,000  Level Atlanta Center
11:36AM 35.0050 -81.5239 246° West  Level FlightAware Approximate
11:36AM 35.0817 -81.2622 258° West 266 306 8,900  Level Atlanta Center
11:37AM 35.0567 -81.3517 251° West 271 312 11,100 2,040 Climbing Atlanta Center
11:38AM 35.0317 -81.4567 254° West 308 354 13,000 1,920 Climbing Atlanta Center
11:39AM 35.0067 -81.5586 253° West 332 382 15,000 2,100 Climbing Atlanta Center
11:40AM 34.9714 -81.6739 250° West 355 409 17,200 2,100 Climbing Atlanta Center
11:41AM 34.9361 -81.7939 250° West 368 423 19,200 2,040 Climbing Atlanta Center
11:42AM 34.8797 -81.9044 238° Southwest 379 436 21,300 1,920 Climbing Atlanta Center
11:43AM 34.8169 -82.0122 235° Southwest 392 451 23,100 1,620 Climbing Atlanta Center
11:44AM 34.7539 -82.1200 235° Southwest 397 457 24,600 1,560 Climbing Atlanta Center
11:45AM 34.6867 -82.2353 235° Southwest 407 468 26,300 1,500 Climbing Atlanta Center
11:46AM 34.6217 -82.3500 235° Southwest 412 474 27,600 1,200 Climbing Atlanta Center
11:47AM 34.5544 -82.4675 235° Southwest 412 474 28,800 1,080 Climbing Atlanta Center
11:48AM 34.4828 -82.6000 237° Southwest 427 491 29,800 1,020 Climbing Atlanta Center
11:49AM 34.4133 -82.7169 234° Southwest 433 498 30,900 1,140 Climbing Atlanta Center
11:50AM 34.3436 -82.8361 235° Southwest 433 498 32,100 1,020 Climbing Atlanta Center
11:51AM 34.2736 -82.9578 235° Southwest 433 498 33,000 1,020 Climbing Atlanta Center
11:52AM 34.2100 -83.0642 234° Southwest 438 504 34,200 1,140 Climbing Atlanta Center
11:53AM 34.1397 -83.1831 234° Southwest 438 504 35,300 1,200 Climbing Atlanta Center
11:54AM 34.0739 -83.2989 236° Southwest 423 487 36,700 1,200 Climbing Atlanta Center
11:55AM 34.0097 -83.4072 234° Southwest 423 487 37,700 600 Climbing Atlanta Center
11:56AM 33.9456 -83.5181 235° Southwest 415 478 38,000 120 Climbing Atlanta Center
11:57AM 33.8769 -83.6308 234° Southwest 415 478 38,000  Level Atlanta Center
11:58AM 33.8022 -83.7564 234° Southwest 415 478 38,000  Level Atlanta Center
11:59AM 33.7314 -83.8739 234° Southwest 430 495 38,000  Level Atlanta Center
12:00PM 33.6564 -83.9889 232° Southwest 435 501 38,000  Level Atlanta Center
12:01PM 33.5814 -84.1036 232° Southwest 435 501 38,000  Level Atlanta Center
12:02PM 33.5103 -84.2206 234° Southwest 440 506 38,000  Level Atlanta Center
12:03PM 33.4350 -84.3375 232° Southwest 440 506 38,000  Level Atlanta Center
12:04PM 33.3700 -84.4392 233° Southwest 440 506 38,000  Level Atlanta Center
12:05PM 33.2986 -84.5558 234° Southwest 445 512 38,000  Level Atlanta Center
12:06PM 33.2228 -84.6694 231° Southwest 445 512 38,000  Level Atlanta Center
12:07PM 33.1492 -84.7831 232° Southwest 440 506 38,000  Level Atlanta Center
12:08PM 33.0775 -84.8967 233° Southwest 440 506 38,000  Level Atlanta Center
12:09PM 32.9972 -85.0197 232° Southwest 440 506 38,000  Level Atlanta Center
12:10PM 32.9272 -85.1378 235° Southwest 435 501 38,000  Level Atlanta Center
12:11PM 32.8533 -85.2356 228° Southwest 428 493 38,000  Level Atlanta Center
12:12PM 32.7811 -85.3508 233° Southwest 423 487 38,000  Level Atlanta Center
12:13PM 32.7069 -85.4608 231° Southwest 430 495 38,000  Level Atlanta Center
12:14PM 32.6325 -85.5731 232° Southwest 436 502 38,000  Level Atlanta Center
12:15PM 32.5581 -85.6900 233° Southwest 441 507 38,100  Climbing Atlanta Center
12:16PM 32.4769 -85.8092 231° Southwest 456 525 38,000 -60 Descending Atlanta Center
12:17PM 32.4022 -85.9233 232° Southwest 461 531 38,000  Level Atlanta Center
12:18PM 32.3275 -86.0347 232° Southwest 448 516 38,000  Level Atlanta Center
12:19PM 32.2547 -86.1436 232° Southwest 441 507 38,000  Level Atlanta Center
12:20PM 32.1900 -86.2550 236° Southwest 430 495 38,000  Level Atlanta Center
12:21PM 32.1153 -86.3511 227° Southwest 440 506 38,000  Level Atlanta Center
12:22PM 32.0442 -86.4719 235° Southwest 433 498 38,000  Level Atlanta Center
12:23PM 31.9689 -86.5753 229° Southwest 428 493 38,000  Level Atlanta Center
12:24PM 31.8642 -86.7178 229° Southwest 411 473 38,000  Level Houston Center
12:25PM 31.7814 -86.8406 232° Southwest 402 463 38,000  Level Houston Center
12:26PM 31.7111 -86.9456 232° Southwest 406 467 38,000  Level Houston Center
12:27PM 31.6397 -87.0497 231° Southwest 410 472 38,000  Level Houston Center
12:28PM 31.5661 -87.1558 231° Southwest 416 479 38,100  Climbing Houston Center
12:29PM 31.4919 -87.2619 231° Southwest 420 483 38,000 -60 Descending Houston Center
12:30PM 31.4186 -87.3694 231° Southwest 421 484 38,000  Level Houston Center
12:31PM 31.3303 -87.4975 231° Southwest 422 486 38,000  Level Houston Center
12:33PM 31.2553 -87.6047 231° Southwest 424 488 38,000 -240 Level Houston Center
12:34PM 31.1808 -87.7119 231° Southwest 427 491 37,600 -1,440 Descending Houston Center
12:35PM 31.1067 -87.8197 231° Southwest 429 494 35,100 -1,260 Descending Houston Center
12:36PM 31.0289 -87.9292 230° Southwest 439 505 35,000 -600 Descending Houston Center
12:37PM 30.9364 -88.0603 231° Southwest 441 507 33,900 -1,500 Descending Houston Center
12:38PM 30.8714 -88.1794 238° Southwest 438 504 32,000 -960 Descending Houston Center
12:39PM 30.8083 -88.3033 239° Southwest 443 510 32,000  Level Houston Center
12:40PM 30.7458 -88.4242 239° Southwest 438 504 32,000  Level Houston Center
12:41PM 30.6769 -88.5550 239° Southwest 437 503 32,000  Level Houston Center
12:42PM 30.6131 -88.6781 239° Southwest 442 509 32,000 -540 Level Houston Center
12:43PM 30.5494 -88.7994 239° Southwest 442 509 30,900 -1,920 Descending Houston Center
12:44PM 30.4867 -88.9197 239° Southwest 436 502 28,100 -2,760 Descending Houston Center
12:45PM 30.4192 -89.0492 239° Southwest 425 489 25,300 -2,580 Descending Houston Center
12:46PM 30.3733 -89.1642 245° Southwest 398 458 22,800 -2,580 Descending Houston Center
12:47PM 30.3322 -89.2783 247° West 384 442 20,000 -3,000 Descending Houston Center
12:48PM 30.2900 -89.3936 247° West 374 430 17,000 -3,180 Descending Houston Center
12:49PM 30.2497 -89.4992 246° West 372 428 13,400 -3,240 Descending Houston Center
12:50PM 30.2211 -89.5750 246° West 366 421 11,400 -2,340 Descending Houston Center
12:50PM 30.2014 -89.6286 247° West 364 419 11,000 -420 Descending Houston Center
12:51PM 30.1792 -89.6900 247° West 357 411 11,000 -300 Level Houston Center
12:51PM 30.1725 -89.7353 260° West 346 398 10,700 -1,380 Descending Houston Center
12:52PM 30.1586 -89.8208 259° West 271 312 9,100 -1,980 Descending Houston Center
12:53PM 30.1519 -89.8742 262° West 265 305 7,700 -2,400 Descending Houston Center
12:53PM 30.1447 -89.9136 258° West 277 319 6,400 -2,400 Descending Houston Center
12:54PM 30.1331 -89.9928 260° West 271 312 4,300 -1,620 Descending Houston Center
12:55PM 30.1261 -90.0386 260° West 254 292 4,000 -300 Descending Houston Center
12:55PM 30.1211 -90.0756 261° West 255 293 4,000 -540 Level Houston Center
12:56PM 30.1158 -90.1114 260° West 223 257 3,500 -1,200 Descending Houston Center